Neil Armstrong — WARL — position and weather

sailwx.info

Track history (hours):
 
Tides and Currents Weather Stations Pressure Air Temp Water Temp Dewpoint Dewpoint Depression Visibility Wind Speed Wind Dir Waves Ship Positions

Oceanographic research ship Neil Armstrong (United States)

Owner: Woods Hole Oceanographic Institution, Woods Hole, MA. More information available from US FCC via Universal Licensing System and Coast Guard Vessel Documentation Center.

Last reported at 2017-Mar-26 11:00 UTC. Time now 2017-Mar-26 12:58 UTC.
Position N 41°30' W 070°42'.

Length 72 m; draft 4.4 m.

Type: Ship. MMSI: 338767000.

Water temperature 2.6 ° C

Date/timePositionNaut miles runAvg speedWind from/ knotsBaromVisibWave heightAir tempDewpointWater temp
2017-Mar-26 11:00N 41°30' W 070°42'0 0.0 2.6
2017-Mar-26 10:00N 41°30' W 070°42'0 0.0 2.6
2017-Mar-26 09:00N 41°30' W 070°42'0 0.0 2.6
2017-Mar-26 08:00N 41°30' W 070°42'0 0.0 2.6
2017-Mar-26 07:00N 41°30' W 070°42'0 0.0 2.7
2017-Mar-26 06:00N 41°30' W 070°42'0 0.0 2.7
2017-Mar-26 05:00N 41°30' W 070°42'0 0.0 2.7
2017-Mar-26 04:00N 41°30' W 070°42'0 0.0 2.7
2017-Mar-26 03:00N 41°30' W 070°42'0 0.0 2.8
2017-Mar-26 02:00N 41°30' W 070°42'0 0.0 2.7
2017-Mar-26 01:00N 41°30' W 070°42'0 0.0 2.7
2017-Mar-26 00:00N 41°30' W 070°42'0 0.0 2.7
2017-Mar-25 23:00N 41°30' W 070°42'0 0.0 2.7
2017-Mar-25 22:00N 41°30' W 070°42'0 0.0 2.7
2017-Mar-25 21:00N 41°30' W 070°42'0 0.0 2.8
2017-Mar-25 20:00N 41°30' W 070°42'0 0.0 2.8
2017-Mar-25 19:00N 41°30' W 070°42'0 0.0 2.8
2017-Mar-25 18:00N 41°30' W 070°42'0 0.0 2.8
2017-Mar-25 17:00N 41°30' W 070°42'0 0.0 2.9
2017-Mar-25 16:00N 41°30' W 070°42'0 0.0 2.9
2017-Mar-25 15:00N 41°30' W 070°42'0 0.0 2.8
2017-Mar-25 14:00N 41°30' W 070°42'0 0.0 2.7
2017-Mar-25 13:00N 41°30' W 070°42'0 0.0 020 / 21021.2 4.8 2.0 2.5
2017-Mar-25 11:00N 41°30' W 070°42'0 0.0 290 / 31020.1 6.0 2.3 2.5
2017-Mar-25 09:00N 41°30' W 070°42'0 0.0 280 / 61018.8 4.8 2.3 2.6
2017-Mar-25 08:00N 41°30' W 070°42'0 0.0 250 / 131017.9 6.6 3.4 2.6
2017-Mar-25 07:00N 41°30' W 070°42'0 0.0 260 / 111018.5 5.9 2.8 2.6
2017-Mar-25 06:00N 41°30' W 070°42'0 0.0 250 / 111018.7 5.2 2.5 2.7
2017-Mar-25 05:00N 41°30' W 070°42'0 0.0 250 / 171019.3 6.4 2.6 2.7
2017-Mar-25 04:00N 41°30' W 070°42'0 0.0 240 / 131019.3 7.4 2.7 2.7
2017-Mar-25 03:00N 41°30' W 070°42'0 0.0 210 / 141019.4 5.5 2.6 2.7
2017-Mar-25 02:00N 41°30' W 070°42'0 0.0 230 / 171020.2 7.4 2.8 2.6
2017-Mar-25 01:00N 41°30' W 070°42'0 0.0 240 / 161020.9 7.3 1.4 2.6
2017-Mar-25 00:00N 41°30' W 070°42'0 0.0 220 / 191020.2 5.6 1.4 2.5
2017-Mar-24 23:00N 41°30' W 070°42'0 0.0 220 / 141020.8 5.4 1.1 2.5
2017-Mar-24 22:00N 41°30' W 070°42'0 0.0 210 / 171021.3 6.0 0.1 2.5
2017-Mar-24 21:00N 41°30' W 070°42'0 0.0 210 / 221022.3 5.9-0.1 2.5
2017-Mar-24 20:00N 41°30' W 070°42'0 0.0 190 / 241023.2 5.4-1.0 2.6
2017-Mar-24 19:00N 41°30' W 070°42'0 0.0 190 / 191025.2 4.9-1.9 2.7
2017-Mar-24 18:00N 41°30' W 070°42'0 0.0 180 / 161027.5 4.5-2.9 2.6
2017-Mar-24 17:00N 41°30' W 070°42'0 0.0 190 / 141029.6 4.2-2.9 2.7
2017-Mar-24 16:00N 41°30' W 070°42'0 0.0 210 / 171031.1 4.0-3.9 2.6
2017-Mar-24 15:00N 41°30' W 070°42'0 0.0 210 / 171032.0 3.7-4.5 2.6
2017-Mar-24 14:00N 41°30' W 070°42'0 0.0 200 / 151031.7 3.5-3.9 2.5
2017-Mar-24 13:00N 41°30' W 070°42'0 0.0 160 / 111033.0 2.4-5.7 2.5
2017-Mar-24 12:00N 41°30' W 070°42'0 0.0 170 / 91033.7 2.0-7.8 2.7
2017-Mar-24 11:00N 41°30' W 070°42'0 0.0 170 / 71034.2 1.7-7.4 2.6
2017-Mar-24 10:00N 41°30' W 070°42'0 0.0 220 / 61033.6 1.6-9.1 2.6
2017-Mar-24 09:00N 41°30' W 070°42'0 0.0 240 / 71033.3 1.0-9.2 2.4
2017-Mar-24 08:00N 41°30' W 070°42'7 7.5 190 / 31033.9 0.9-9.0 2.4
2017-Mar-24 07:00N 41°24' W 070°48'5 4.5 320 / 41033.9 0.9-10.5 2.6
2017-Mar-24 06:00N 41°24' W 070°54'1212.0 310 / 41034.3 1.6-11.0 3.0
2017-Mar-24 05:00N 41°12' W 070°54'6 6.0 310 / 101034.3 2.5-13.2 3.3
2017-Mar-24 04:00N 41°06' W 070°54'1312.8 310 / 131034.5 3.2-12.8 4.0
2017-Mar-24 03:00N 40°54' W 070°48'1312.8 310 / 171034.9 3.2-12.3 3.7
2017-Mar-24 02:00N 40°42' W 070°42'6 6.0 300 / 161034.7 3.3-10.9 4.4
2017-Mar-24 01:00N 40°36' W 070°42'6 6.0 310 / 161033.7 3.2-11.5 5.0
2017-Mar-24 00:00N 40°30' W 070°42'5 4.6 310 / 201032.9 2.9-11.0 5.0
2017-Mar-23 23:00N 40°30' W 070°36'0 0.0 320 / 181032.5 2.3-11.1 5.0
2017-Mar-23 22:00N 40°30' W 070°36'0 0.0 300 / 181032.2 1.3-11.7 5.0
2017-Mar-23 21:00N 40°30' W 070°36'5 4.6 300 / 171032.0 0.2-11.8 5.1
2017-Mar-23 20:00N 40°30' W 070°30'0 0.0 320 / 191032.0 -0.4-11.2 5.2
2017-Mar-23 19:00N 40°30' W 070°30'5 4.6 310 / 191032.3 -1.4-11.6 5.2
2017-Mar-23 18:00N 40°30' W 070°36'0 0.0 310 / 211032.2 -2.0-13.1 5.1
2017-Mar-23 17:00N 40°30' W 070°36'6 6.0 320 / 231032.7 -2.6-13.2 5.1
2017-Mar-23 16:00N 40°24' W 070°36'6 6.0 320 / 231033.3 -3.4-14.1 5.2
2017-Mar-23 15:00N 40°30' W 070°36'0 0.0 320 / 231033.0 -3.6-13.7 5.1
2017-Mar-23 14:00N 40°30' W 070°36'9 9.1 320 / 291033.2 -3.4-12.3 5.1
2017-Mar-23 13:00N 40°30' W 070°48'5 4.6 320 / 261033.2 -3.7-14.6 4.9
2017-Mar-23 12:00N 40°30' W 070°54'0 0.0 330 / 221032.4 -3.8-15.5 5.1
2017-Mar-23 11:00N 40°30' W 070°54'5 4.6 340 / 271031.2 -4.0-15.9 5.1
2017-Mar-23 10:00N 40°30' W 070°48'0 0.0 330 / 241030.1 -4.0-13.8 5.1
2017-Mar-23 09:00N 40°30' W 070°48'0 0.0 330 / 281029.6 -4.0-13.6 5.1
2017-Mar-23 08:00N 40°30' W 070°48'0 0.0 330 / 251028.4 -3.8-14.0 5.2
2017-Mar-23 07:00N 40°30' W 070°48'0 0.0 340 / 261027.9 -3.5-16.8 5.2
2017-Mar-23 06:00N 40°30' W 070°48'0 0.0 330 / 301027.1 -3.1-14.3 5.2
2017-Mar-23 05:00N 40°30' W 070°48'6 6.0 340 / 341026.8 -2.7-14.1 5.2
2017-Mar-23 04:00N 40°24' W 070°48'0 0.0 330 / 341026.4 -2.3-14.5 5.2
2017-Mar-23 03:00N 40°24' W 070°48'0 0.0 330 / 391025.3 -2.0-15.7 5.2
2017-Mar-23 02:00N 40°24' W 070°48'0 0.0 340 / 361023.7 -1.0-14.0 5.2
2017-Mar-23 01:00N 40°24' W 070°48'0 0.0 330 / 311023.1 -0.7-15.2 5.2
2017-Mar-23 00:00N 40°24' W 070°48'6 6.0 330 / 341021.8 -0.2-11.6 5.2
2017-Mar-22 23:00N 40°30' W 070°48'0 0.0 310 / 311020.4 -0.3-14.4 5.2
2017-Mar-22 22:00N 40°30' W 070°48'0 0.0 330 / 311018.2 -0.0-14.1 5.2
2017-Mar-22 21:00N 40°30' W 070°48'0 0.0 310 / 311016.9 0.3-11.1 5.2
2017-Mar-22 20:00N 40°30' W 070°48'0 0.0 320 / 391016.3 0.6-13.1 5.2
2017-Mar-22 19:00N 40°30' W 070°48'0 0.0 310 / 311015.4 0.8-13.0 5.2
2017-Mar-22 18:00N 40°30' W 070°48'0 0.0 300 / 321014.9 0.9-9.6 5.2
2017-Mar-22 17:00N 40°30' W 070°48'8 7.5 310 / 311014.3 1.4-8.6 5.2
2017-Mar-22 16:00N 40°24' W 070°42'8 7.5 310 / 311013.8 2.6-5.7 5.3
2017-Mar-22 15:00N 40°30' W 070°48'5 4.6 320 / 361013.0 3.8-2.9 5.3
2017-Mar-22 14:00N 40°30' W 070°42'0 0.0 310 / 241012.0 4.8-4.1 5.2
2017-Mar-22 13:00N 40°30' W 070°42'5 4.6 320 / 181011.4 5.2-2.1 5.3
2017-Mar-22 12:00N 40°30' W 070°36'0 0.0 300 / 201011.0 6.6 0.2 5.2
2017-Mar-22 11:00N 40°30' W 070°36'0 0.0 270 / 141010.0 6.5 0.8 5.2
2017-Mar-22 10:00N 40°30' W 070°36'0 0.0 250 / 71009.2 6.1 2.2 5.2
2017-Mar-22 09:00N 40°30' W 070°36'5 4.6 260 / 91009.4 6.3 1.8 5.2
2017-Mar-22 08:00N 40°30' W 070°30'0 0.0 290 / 91009.6 6.3 1.8 5.2
2017-Mar-22 07:00N 40°30' W 070°30'5 4.6 310 / 101009.5 6.3 2.3 5.2
2017-Mar-22 06:00N 40°30' W 070°36'0 0.0 280 / 131010.8 6.6 2.2 5.2
2017-Mar-22 05:00N 40°30' W 070°36'6 6.0 250 / 141010.9 6.4 2.3 5.4
2017-Mar-22 04:00N 40°24' W 070°36'6 6.0 270 / 111010.6 6.3 2.4 5.4
2017-Mar-22 03:00N 40°30' W 070°36'0 0.0 260 / 111011.1 6.2 2.3 5.4
2017-Mar-22 02:00N 40°30' W 070°36'0 0.0 250 / 151011.5 6.1 1.7 5.4
2017-Mar-22 01:00N 40°30' W 070°36'0 0.0 250 / 141011.6 5.9 1.8 5.5
2017-Mar-22 00:00N 40°30' W 070°36'0 0.0 250 / 141011.2 6.0 2.1 5.5
2017-Mar-21 23:00N 40°30' W 070°36'0 0.0 240 / 121010.7 6.1 2.8 5.6
2017-Mar-21 22:00N 40°30' W 070°36'0 0.0 240 / 91010.7 6.8 2.7 5.6
2017-Mar-21 21:00N 40°30' W 070°36'0 0.0 250 / 91010.9 6.2 1.5 5.7
2017-Mar-21 20:00N 40°30' W 070°36'0 0.0 250 / 91011.1 6.3 1.7 5.6
2017-Mar-21 19:00N 40°30' W 070°36'0 0.0 260 / 71011.6 5.9 1.4 5.6
2017-Mar-21 18:00N 40°30' W 070°36'0 0.0 270 / 101012.5 5.9 1.4 5.5
2017-Mar-21 17:00N 40°30' W 070°36'0 0.0 260 / 101012.7 5.9 1.0 5.5
2017-Mar-21 16:00N 40°30' W 070°36'0 0.0 240 / 41012.9 6.6 1.1 5.6
2017-Mar-21 15:00N 40°30' W 070°36'0 0.0 270 / 41012.8 5.9 0.2 5.5
2017-Mar-21 14:00N 40°30' W 070°36'0 0.0 300 / 51012.8 6.1-0.3 5.4
2017-Mar-21 13:00N 40°30' W 070°36'0 0.0 340 / 31013.1 6.5 0.1 5.3
2017-Mar-21 12:00N 40°30' W 070°36'0 0.0 300 / 81013.2 5.8-1.1 5.3
2017-Mar-21 11:00N 40°30' W 070°36'0 0.0 290 / 101012.6 5.5-0.3 5.2
2017-Mar-21 10:00N 40°30' W 070°36'1312.8 320 / 101011.8 5.5-1.0 5.2
2017-Mar-21 09:00N 40°42' W 070°42'6 6.0 310 / 101011.9 5.4-1.2 4.5
2017-Mar-21 08:00N 40°48' W 070°42'1312.8 320 / 121011.6 5.5-2.5 4.4
2017-Mar-21 07:00N 41°00' W 070°48'8 7.5 300 / 121012.0 5.3-1.7 3.5
2017-Mar-21 06:00N 41°06' W 070°54'1212.0 310 / 131012.3 5.5-3.3 3.4
2017-Mar-21 05:00N 41°18' W 070°54'8 7.5 300 / 111012.6 4.8-1.6 3.2
2017-Mar-21 04:00N 41°24' W 070°48'0 0.0 240 / 21013.3 3.9-1.6 2.6
2017-Mar-21 03:00N 41°24' W 070°48'0 0.0 230 / 71013.5 3.6-5.3 2.6
2017-Mar-21 02:00N 41°24' W 070°48'0 0.0 100 / 11013.6 5.2-8.8 2.6
2017-Mar-21 01:00N 41°24' W 070°48'0 0.0 080 / 51013.7 5.6-8.1 2.6
2017-Mar-21 00:00N 41°24' W 070°48'0 0.0 040 / 51013.8 5.7-5.9 2.7
2017-Mar-20 23:00N 41°24' W 070°48'0 0.0 300 / 31013.8 6.0-6.2 2.7
2017-Mar-20 22:00N 41°24' W 070°48'0 0.0 030 / 101013.6 6.8-8.9 2.7
2017-Mar-20 21:00N 41°24' W 070°48'0 0.0 010 / 141014.0 7.0-9.9 2.7
2017-Mar-20 20:00N 41°24' W 070°48'0 0.0 030 / 151013.7 6.1-7.8 2.6
2017-Mar-20 19:00N 41°24' W 070°48'0 0.0 020 / 191013.4 6.0-8.9 2.6
2017-Mar-20 18:00N 41°24' W 070°48'0 0.0 020 / 221013.5 5.5-8.2 2.6
2017-Mar-20 17:00N 41°24' W 070°48'0 0.0 020 / 191014.4 5.2-7.8 2.6
2017-Mar-20 16:00N 41°24' W 070°48'0 0.0 010 / 181015.2 5.2-7.8 2.6
2017-Mar-20 15:00N 41°24' W 070°48'0 0.0 020 / 191015.5 4.4-6.9 2.6
2017-Mar-20 14:00N 41°24' W 070°48'0 0.0 010 / 211015.4 3.8-6.7 2.5
2017-Mar-20 13:00N 41°24' W 070°48'0 0.0 1015.6 2.9-7.8 2.5
2017-Mar-20 12:00N 41°24' W 070°48'0 0.0 1015.7 2.4-8.6 2.5
2017-Mar-20 11:00N 41°24' W 070°48'0 0.0 350 / 231015.3 2.1-7.8 2.5
2017-Mar-20 10:00N 41°24' W 070°48'0 0.0 350 / 221014.8 2.2-6.6 2.5
2017-Mar-20 09:00N 41°24' W 070°48'0 0.0 350 / 231014.7 2.4-6.3 2.5
2017-Mar-20 08:00N 41°24' W 070°48'0 0.0 350 / 201014.7 2.4-6.2 2.5
2017-Mar-20 07:00N 41°24' W 070°48'0 0.0 350 / 191014.8 2.6-5.3 2.5
2017-Mar-20 06:00N 41°24' W 070°48'0 0.0 350 / 171015.5 2.7-4.1 2.5
2017-Mar-20 05:00N 41°24' W 070°48'0 0.0 010 / 181016.1 3.0-4.0 2.5
2017-Mar-20 04:00N 41°24' W 070°48'0 0.0 1016.7 2.9-4.3 2.5
2017-Mar-20 03:00N 41°24' W 070°48'0 0.0 360 / 211017.4 3.0-4.1 2.5
2017-Mar-20 02:00N 41°24' W 070°48'0 0.0 010 / 201018.2 2.6-3.0 2.5
2017-Mar-20 01:00N 41°24' W 070°48'0 0.0 020 / 241018.3 2.2-3.7 2.6
2017-Mar-20 00:00N 41°24' W 070°48'0 0.0 020 / 371017.4 2.4-4.6 2.6
2017-Mar-19 23:00N 41°24' W 070°48'0 0.0 010 / 251017.3 2.4-2.2 2.6
2017-Mar-19 22:00N 41°24' W 070°48'0 0.0 020 / 301016.9 2.5-2.7 2.6
2017-Mar-19 21:00N 41°24' W 070°48'0 0.0 020 / 311017.3 2.2-1.3 2.6
2017-Mar-19 20:00N 41°24' W 070°48'0 0.0 020 / 311017.2 2.4-1.8 2.6
2017-Mar-19 19:00N 41°24' W 070°48'0 0.0 010 / 281017.7 2.3-1.1 2.6
2017-Mar-19 18:00N 41°24' W 070°48'0 0.0 020 / 291018.0 2.3-1.7 2.6
2017-Mar-19 17:00N 41°24' W 070°48'0 0.0 010 / 241018.8 2.4-2.2 2.6
2017-Mar-19 16:00N 41°24' W 070°48'0 0.0 030 / 311019.2 2.2-2.6 2.6
2017-Mar-19 15:00N 41°24' W 070°48'0 0.0 030 / 281019.7 2.4-2.7 2.5
2017-Mar-19 14:00N 41°24' W 070°48'0 0.0 050 / 271020.1 2.0-1.0 2.6
2017-Mar-19 13:00N 41°24' W 070°48'8 7.5 040 / 231020.2 2.2-1.5 2.6
2017-Mar-19 12:00N 41°18' W 070°54'8 7.5 030 / 271020.1 2.6-1.2 3.0
2017-Mar-19 11:00N 41°12' W 070°48'8 7.5 040 / 261020.3 2.7-0.7 3.7
2017-Mar-19 10:00N 41°06' W 070°42'1110.9 050 / 331019.6 2.5 0.3 3.8
2017-Mar-19 09:00N 41°00' W 070°30'1312.8 060 / 301018.6 2.6 0.3 3.4
2017-Mar-19 08:00N 40°48' W 070°24'6 6.0 060 / 261018.2 2.4-0.0 3.6
2017-Mar-19 07:00N 40°42' W 070°24'8 7.5 060 / 251018.6 2.8 0.2 4.2
2017-Mar-19 06:00N 40°36' W 070°30'8 7.5 070 / 291018.2 3.1 0.5 3.9
2017-Mar-19 05:00N 40°30' W 070°36'5 4.6 070 / 271018.1 3.5 1.0 4.3
2017-Mar-19 04:00N 40°30' W 070°30'5 4.6 080 / 271019.5 3.7 0.9 4.1
2017-Mar-19 03:00N 40°30' W 070°24'5 4.6 090 / 291019.1 4.6 1.0 4.3
2017-Mar-19 02:00N 40°30' W 070°30'0 0.0 090 / 221020.1 5.1-1.2 4.3
2017-Mar-19 01:00N 40°30' W 070°30'6 6.0 090 / 201021.4 5.2-0.2 4.3
2017-Mar-19 00:00N 40°24' W 070°30'6 6.0 100 / 171022.1 5.3-0.4 4.3
2017-Mar-18 23:00N 40°30' W 070°30'5 4.6 070 / 161021.9 5.1-0.1 4.4
2017-Mar-18 22:00N 40°30' W 070°36'0 0.0 080 / 121022.1 5.2-0.0 4.5
2017-Mar-18 21:00N 40°30' W 070°36'5 4.6 100 / 141022.3 5.2-1.0 4.7
2017-Mar-18 20:00N 40°30' W 070°42'5 4.6 080 / 141022.7 4.7 1.9 5.1
2017-Mar-18 19:00N 40°30' W 070°36'5 4.6 070 / 151022.9 4.5 0.8 4.9
2017-Mar-18 18:00N 40°30' W 070°30'0 0.0 080 / 121023.4 4.5 1.4 4.4
2017-Mar-18 17:00N 40°30' W 070°30'0 0.0 090 / 121024.0 4.4 1.7 4.3
2017-Mar-18 16:00N 40°30' W 070°30'0 0.0 070 / 101024.7 4.3 1.3 4.2
2017-Mar-18 15:00N 40°30' W 070°30'0 0.0 070 / 81025.4 4.5 1.1 4.3
2017-Mar-18 14:00N 40°30' W 070°30'0 0.0 080 / 51025.1 4.5 1.0 4.0
2017-Mar-18 13:00N 40°30' W 070°30'5 4.6 060 / 31025.1 4.3-0.4 4.0
2017-Mar-18 12:00N 40°30' W 070°36'5 4.6 140 / 41024.6 4.5-0.7 4.9
2017-Mar-18 11:00N 40°30' W 070°42'0 0.0 150 / 21024.3 4.4-1.7 5.1
2017-Mar-18 10:00N 40°30' W 070°42'0 0.0 270 / 11024.1 4.4-2.5 5.0
2017-Mar-18 09:00N 40°30' W 070°42'5 4.6 1023.7 4.7-1.2 5.0
2017-Mar-18 08:00N 40°30' W 070°36'5 4.6 310 / 61023.7 5.1-0.3 4.9
2017-Mar-18 07:00N 40°30' W 070°30'5 4.6 270 / 81023.7 5.0 0.1 4.2
2017-Mar-18 06:00N 40°30' W 070°36'0 0.0 260 / 101024.3 5.3-0.2 4.8
2017-Mar-18 05:00N 40°30' W 070°36'0 0.0 260 / 121024.3 5.3-0.8 5.0
2017-Mar-18 04:00N 40°30' W 070°36'5 4.6 280 / 121023.9 5.2-1.9 4.9
2017-Mar-18 03:00N 40°30' W 070°30'0 0.0 280 / 151023.8 5.0-2.6 4.3
2017-Mar-18 02:00N 40°30' W 070°30'5 4.6 280 / 221023.7 4.7-3.5 4.7
2017-Mar-18 01:00N 40°30' W 070°36'6 6.0 300 / 161023.4 4.4-3.6 4.8
2017-Mar-18 00:00N 40°24' W 070°36'5 4.6 290 / 201022.7 4.5-5.2 5.0
2017-Mar-17 23:00N 40°24' W 070°30'8 7.5 270 / 221022.4 4.1-5.0 4.9
2017-Mar-17 22:00N 40°30' W 070°36'0 0.0 290 / 191021.6 3.9-8.6 5.0
2017-Mar-17 21:00N 40°30' W 070°36'1110.9 270 / 211021.3 3.3-6.9 5.0
2017-Mar-17 20:00N 40°36' W 070°48'1515.1 290 / 221021.5 2.9-6.1 5.3
2017-Mar-17 19:00N 40°48' W 071°00'8 7.5 280 / 211021.4 2.6-6.4 6.0
2017-Mar-17 18:00N 40°54' W 071°06'8 7.5 280 / 241021.2 1.9-7.5 6.0
2017-Mar-17 17:00N 41°00' W 071°12'1515.0 290 / 241021.5 1.4-9.3 5.2
2017-Mar-17 16:00N 41°12' W 071°24'6 6.0 290 / 211021.7 1.3-11.9 4.7
2017-Mar-17 15:00N 41°18' W 071°24'1312.8 310 / 191021.8 0.6-13.7 3.6
2017-Mar-17 14:00N 41°30' W 071°18'0 0.0 310 / 161021.4 -0.3-14.8 2.8
2017-Mar-17 13:00N 41°30' W 071°18'2 2.1 290 / 141021.5 -1.1-10.5 2.8
2017-Mar-17 12:04N 41°32' W 071°19'229.1
2017-Mar-17 12:00N 41°30' W 071°18'2 4.0 280 / 131021.0 -1.9-9.8 2.7
2017-Mar-17 11:29N 41°32' W 071°19'9 5.8
2017-Mar-17 10:00N 41°24' W 071°24'8 7.5 280 / 131019.8 -1.7-8.9 3.5
2017-Mar-17 09:00N 41°18' W 071°18'1212.0 290 / 201019.3 0.1-8.9 4.7
2017-Mar-17 08:00N 41°06' W 071°18'1110.9 310 / 211018.5 0.6-9.0 5.1
2017-Mar-17 07:00N 41°00' W 071°06'1312.8 310 / 261018.1 0.7-8.4 6.1
2017-Mar-17 06:00N 40°48' W 071°00'8 7.5 330 / 251017.7 0.8-11.5 6.0
2017-Mar-17 05:00N 40°42' W 070°54'1110.9 320 / 271017.3 0.9-10.8 5.6
2017-Mar-17 04:00N 40°36' W 070°42'8 7.5 320 / 251016.7 1.7-8.8 5.2
2017-Mar-17 03:00N 40°30' W 070°36'8 7.5 300 / 231015.8 3.2-10.2 5.0
2017-Mar-17 02:00N 40°24' W 070°30'8 7.5 300 / 281015.3 3.3-9.9 4.4
2017-Mar-17 01:00N 40°30' W 070°36'6 6.0 290 / 271014.9 3.0-8.4 5.1
2017-Mar-17 00:00N 40°24' W 070°36'5 4.6 290 / 281014.2 2.8-7.6 4.8
2017-Mar-16 23:00N 40°24' W 070°30'8 7.5 290 / 331012.3 2.1-9.8 4.6
2017-Mar-16 22:00N 40°30' W 070°36'5 4.6 280 / 271012.6 1.6-6.8 5.0
2017-Mar-16 21:00N 40°30' W 070°30'0 0.0 280 / 291011.9 1.0-8.7 4.9
2017-Mar-16 20:00N 40°30' W 070°30'0 0.0 280 / 251011.7 0.6-8.2 4.6
2017-Mar-16 19:00N 40°30' W 070°30'5 4.6 280 / 281011.5 0.1-8.7 4.8
2017-Mar-16 18:00N 40°30' W 070°36'8 7.5 280 / 201012.0 0.2-7.8 5.1
2017-Mar-16 17:00N 40°36' W 070°42'1312.8 280 / 301011.3 -0.5-9.4 5.2
2017-Mar-16 16:00N 40°48' W 070°48'1212.0 280 / 291011.1 -0.9-9.9 5.3
2017-Mar-16 15:00N 41°00' W 070°48'8 7.5 270 / 321010.6 -1.4-8.8 5.1
2017-Mar-16 14:00N 41°06' W 070°54'1212.0 270 / 301010.3 -1.8-9.8 4.6
2017-Mar-16 13:00N 41°18' W 070°54'8 7.5 280 / 291010.4 -2.7-11.7 3.0
2017-Mar-16 12:00N 41°24' W 070°48'7 7.5 290 / 311009.2 -3.5-12.1 2.4
2017-Mar-16 11:00N 41°30' W 070°42'   260 / 201009.0 -3.6-11.7 1.7
Track history (hours):
 
Tides and Currents Weather Stations Pressure Air Temp Water Temp Dewpoint Dewpoint Depression Visibility Wind Speed Wind Dir Waves Ship Positions

Oceanographic research ship Neil Armstrong (United States)

Owner: Woods Hole Oceanographic Institution, Woods Hole, MA. More information available from US FCC via Universal Licensing System and Coast Guard Vessel Documentation Center.

Last reported at 2017-Mar-26 11:00 UTC. Time now 2017-Mar-26 12:58 UTC.
Position N 41°30' W 070°42'.

Length 72 m; draft 4.4 m.

Type: Ship. MMSI: 338767000.

Water temperature 2.6 ° C

Date/timePositionNaut miles runAvg speedWind from/ knotsBaromVisibWave heightAir tempDewpointWater temp
2017-Mar-26 11:00N 41°30' W 070°42'0 0.0 2.6
2017-Mar-26 10:00N 41°30' W 070°42'0 0.0 2.6
2017-Mar-26 09:00N 41°30' W 070°42'0 0.0 2.6
2017-Mar-26 08:00N 41°30' W 070°42'0 0.0 2.6
2017-Mar-26 07:00N 41°30' W 070°42'0 0.0 2.7
2017-Mar-26 06:00N 41°30' W 070°42'0 0.0 2.7
2017-Mar-26 05:00N 41°30' W 070°42'0 0.0 2.7
2017-Mar-26 04:00N 41°30' W 070°42'0 0.0 2.7
2017-Mar-26 03:00N 41°30' W 070°42'0 0.0 2.8
2017-Mar-26 02:00N 41°30' W 070°42'0 0.0 2.7
2017-Mar-26 01:00N 41°30' W 070°42'0 0.0 2.7
2017-Mar-26 00:00N 41°30' W 070°42'0 0.0 2.7
2017-Mar-25 23:00N 41°30' W 070°42'0 0.0 2.7
2017-Mar-25 22:00N 41°30' W 070°42'0 0.0 2.7
2017-Mar-25 21:00N 41°30' W 070°42'0 0.0 2.8
2017-Mar-25 20:00N 41°30' W 070°42'0 0.0 2.8
2017-Mar-25 19:00N 41°30' W 070°42'0 0.0 2.8
2017-Mar-25 18:00N 41°30' W 070°42'0 0.0 2.8
2017-Mar-25 17:00N 41°30' W 070°42'0 0.0 2.9
2017-Mar-25 16:00N 41°30' W 070°42'0 0.0 2.9
2017-Mar-25 15:00N 41°30' W 070°42'0 0.0 2.8
2017-Mar-25 14:00N 41°30' W 070°42'0 0.0 2.7
2017-Mar-25 13:00N 41°30' W 070°42'0 0.0 020 / 21021.2 4.8 2.0 2.5
2017-Mar-25 11:00N 41°30' W 070°42'0 0.0 290 / 31020.1 6.0 2.3 2.5
2017-Mar-25 09:00N 41°30' W 070°42'0 0.0 280 / 61018.8 4.8 2.3 2.6
2017-Mar-25 08:00N 41°30' W 070°42'0 0.0 250 / 131017.9 6.6 3.4 2.6
2017-Mar-25 07:00N 41°30' W 070°42'0 0.0 260 / 111018.5 5.9 2.8 2.6
2017-Mar-25 06:00N 41°30' W 070°42'0 0.0 250 / 111018.7 5.2 2.5 2.7
2017-Mar-25 05:00N 41°30' W 070°42'0 0.0 250 / 171019.3 6.4 2.6 2.7
2017-Mar-25 04:00N 41°30' W 070°42'0 0.0 240 / 131019.3 7.4 2.7 2.7
2017-Mar-25 03:00N 41°30' W 070°42'0 0.0 210 / 141019.4 5.5 2.6 2.7
2017-Mar-25 02:00N 41°30' W 070°42'0 0.0 230 / 171020.2 7.4 2.8 2.6
2017-Mar-25 01:00N 41°30' W 070°42'0 0.0 240 / 161020.9 7.3 1.4 2.6
2017-Mar-25 00:00N 41°30' W 070°42'0 0.0 220 / 191020.2 5.6 1.4 2.5
2017-Mar-24 23:00N 41°30' W 070°42'0 0.0 220 / 141020.8 5.4 1.1 2.5
2017-Mar-24 22:00N 41°30' W 070°42'0 0.0 210 / 171021.3 6.0 0.1 2.5
2017-Mar-24 21:00N 41°30' W 070°42'0 0.0 210 / 221022.3 5.9-0.1 2.5
2017-Mar-24 20:00N 41°30' W 070°42'0 0.0 190 / 241023.2 5.4-1.0 2.6
2017-Mar-24 19:00N 41°30' W 070°42'0 0.0 190 / 191025.2 4.9-1.9 2.7
2017-Mar-24 18:00N 41°30' W 070°42'0 0.0 180 / 161027.5 4.5-2.9 2.6
2017-Mar-24 17:00N 41°30' W 070°42'0 0.0 190 / 141029.6 4.2-2.9 2.7
2017-Mar-24 16:00N 41°30' W 070°42'0 0.0 210 / 171031.1 4.0-3.9 2.6
2017-Mar-24 15:00N 41°30' W 070°42'0 0.0 210 / 171032.0 3.7-4.5 2.6
2017-Mar-24 14:00N 41°30' W 070°42'0 0.0 200 / 151031.7 3.5-3.9 2.5
2017-Mar-24 13:00N 41°30' W 070°42'0 0.0 160 / 111033.0 2.4-5.7 2.5
2017-Mar-24 12:00N 41°30' W 070°42'0 0.0 170 / 91033.7 2.0-7.8 2.7
2017-Mar-24 11:00N 41°30' W 070°42'0 0.0 170 / 71034.2 1.7-7.4 2.6
2017-Mar-24 10:00N 41°30' W 070°42'0 0.0 220 / 61033.6 1.6-9.1 2.6
2017-Mar-24 09:00N 41°30' W 070°42'0 0.0 240 / 71033.3 1.0-9.2 2.4
2017-Mar-24 08:00N 41°30' W 070°42'7 7.5 190 / 31033.9 0.9-9.0 2.4
2017-Mar-24 07:00N 41°24' W 070°48'5 4.5 320 / 41033.9 0.9-10.5 2.6
2017-Mar-24 06:00N 41°24' W 070°54'1212.0 310 / 41034.3 1.6-11.0 3.0
2017-Mar-24 05:00N 41°12' W 070°54'6 6.0 310 / 101034.3 2.5-13.2 3.3
2017-Mar-24 04:00N 41°06' W 070°54'1312.8 310 / 131034.5 3.2-12.8 4.0
2017-Mar-24 03:00N 40°54' W 070°48'1312.8 310 / 171034.9 3.2-12.3 3.7
2017-Mar-24 02:00N 40°42' W 070°42'6 6.0 300 / 161034.7 3.3-10.9 4.4
2017-Mar-24 01:00N 40°36' W 070°42'6 6.0 310 / 161033.7 3.2-11.5 5.0
2017-Mar-24 00:00N 40°30' W 070°42'5 4.6 310 / 201032.9 2.9-11.0 5.0
2017-Mar-23 23:00N 40°30' W 070°36'0 0.0 320 / 181032.5 2.3-11.1 5.0
2017-Mar-23 22:00N 40°30' W 070°36'0 0.0 300 / 181032.2 1.3-11.7 5.0
2017-Mar-23 21:00N 40°30' W 070°36'5 4.6 300 / 171032.0 0.2-11.8 5.1
2017-Mar-23 20:00N 40°30' W 070°30'0 0.0 320 / 191032.0 -0.4-11.2 5.2
2017-Mar-23 19:00N 40°30' W 070°30'5 4.6 310 / 191032.3 -1.4-11.6 5.2
2017-Mar-23 18:00N 40°30' W 070°36'0 0.0 310 / 211032.2 -2.0-13.1 5.1
2017-Mar-23 17:00N 40°30' W 070°36'6 6.0 320 / 231032.7 -2.6-13.2 5.1
2017-Mar-23 16:00N 40°24' W 070°36'6 6.0 320 / 231033.3 -3.4-14.1 5.2
2017-Mar-23 15:00N 40°30' W 070°36'0 0.0 320 / 231033.0 -3.6-13.7 5.1
2017-Mar-23 14:00N 40°30' W 070°36'9 9.1 320 / 291033.2 -3.4-12.3 5.1
2017-Mar-23 13:00N 40°30' W 070°48'5 4.6 320 / 261033.2 -3.7-14.6 4.9
2017-Mar-23 12:00N 40°30' W 070°54'0 0.0 330 / 221032.4 -3.8-15.5 5.1
2017-Mar-23 11:00N 40°30' W 070°54'5 4.6 340 / 271031.2 -4.0-15.9 5.1
2017-Mar-23 10:00N 40°30' W 070°48'0 0.0 330 / 241030.1 -4.0-13.8 5.1
2017-Mar-23 09:00N 40°30' W 070°48'0 0.0 330 / 281029.6 -4.0-13.6 5.1
2017-Mar-23 08:00N 40°30' W 070°48'0 0.0 330 / 251028.4 -3.8-14.0 5.2
2017-Mar-23 07:00N 40°30' W 070°48'0 0.0 340 / 261027.9 -3.5-16.8 5.2
2017-Mar-23 06:00N 40°30' W 070°48'0 0.0 330 / 301027.1 -3.1-14.3 5.2
2017-Mar-23 05:00N 40°30' W 070°48'6 6.0 340 / 341026.8 -2.7-14.1 5.2
2017-Mar-23 04:00N 40°24' W 070°48'0 0.0 330 / 341026.4 -2.3-14.5 5.2
2017-Mar-23 03:00N 40°24' W 070°48'0 0.0 330 / 391025.3 -2.0-15.7 5.2
2017-Mar-23 02:00N 40°24' W 070°48'0 0.0 340 / 361023.7 -1.0-14.0 5.2
2017-Mar-23 01:00N 40°24' W 070°48'0 0.0 330 / 311023.1 -0.7-15.2 5.2
2017-Mar-23 00:00N 40°24' W 070°48'6 6.0 330 / 341021.8 -0.2-11.6 5.2
2017-Mar-22 23:00N 40°30' W 070°48'0 0.0 310 / 311020.4 -0.3-14.4 5.2
2017-Mar-22 22:00N 40°30' W 070°48'0 0.0 330 / 311018.2 -0.0-14.1 5.2
2017-Mar-22 21:00N 40°30' W 070°48'0 0.0 310 / 311016.9 0.3-11.1 5.2
2017-Mar-22 20:00N 40°30' W 070°48'0 0.0 320 / 391016.3 0.6-13.1 5.2
2017-Mar-22 19:00N 40°30' W 070°48'0 0.0 310 / 311015.4 0.8-13.0 5.2
2017-Mar-22 18:00N 40°30' W 070°48'0 0.0 300 / 321014.9 0.9-9.6 5.2
2017-Mar-22 17:00N 40°30' W 070°48'8 7.5 310 / 311014.3 1.4-8.6 5.2
2017-Mar-22 16:00N 40°24' W 070°42'8 7.5 310 / 311013.8 2.6-5.7 5.3
2017-Mar-22 15:00N 40°30' W 070°48'5 4.6 320 / 361013.0 3.8-2.9 5.3
2017-Mar-22 14:00N 40°30' W 070°42'0 0.0 310 / 241012.0 4.8-4.1 5.2
2017-Mar-22 13:00N 40°30' W 070°42'5 4.6 320 / 181011.4 5.2-2.1 5.3
2017-Mar-22 12:00N 40°30' W 070°36'0 0.0 300 / 201011.0 6.6 0.2 5.2
2017-Mar-22 11:00N 40°30' W 070°36'0 0.0 270 / 141010.0 6.5 0.8 5.2
2017-Mar-22 10:00N 40°30' W 070°36'0 0.0 250 / 71009.2 6.1 2.2 5.2
2017-Mar-22 09:00N 40°30' W 070°36'5 4.6 260 / 91009.4 6.3 1.8 5.2
2017-Mar-22 08:00N 40°30' W 070°30'0 0.0 290 / 91009.6 6.3 1.8 5.2
2017-Mar-22 07:00N 40°30' W 070°30'5 4.6 310 / 101009.5 6.3 2.3 5.2
2017-Mar-22 06:00N 40°30' W 070°36'0 0.0 280 / 131010.8 6.6 2.2 5.2
2017-Mar-22 05:00N 40°30' W 070°36'6 6.0 250 / 141010.9 6.4 2.3 5.4
2017-Mar-22 04:00N 40°24' W 070°36'6 6.0 270 / 111010.6 6.3 2.4 5.4
2017-Mar-22 03:00N 40°30' W 070°36'0 0.0 260 / 111011.1 6.2 2.3 5.4
2017-Mar-22 02:00N 40°30' W 070°36'0 0.0 250 / 151011.5 6.1 1.7 5.4
2017-Mar-22 01:00N 40°30' W 070°36'0 0.0 250 / 141011.6 5.9 1.8 5.5
2017-Mar-22 00:00N 40°30' W 070°36'0 0.0 250 / 141011.2 6.0 2.1 5.5
2017-Mar-21 23:00N 40°30' W 070°36'0 0.0 240 / 121010.7 6.1 2.8 5.6
2017-Mar-21 22:00N 40°30' W 070°36'0 0.0 240 / 91010.7 6.8 2.7 5.6
2017-Mar-21 21:00N 40°30' W 070°36'0 0.0 250 / 91010.9 6.2 1.5 5.7
2017-Mar-21 20:00N 40°30' W 070°36'0 0.0 250 / 91011.1 6.3 1.7 5.6
2017-Mar-21 19:00N 40°30' W 070°36'0 0.0 260 / 71011.6 5.9 1.4 5.6
2017-Mar-21 18:00N 40°30' W 070°36'0 0.0 270 / 101012.5 5.9 1.4 5.5
2017-Mar-21 17:00N 40°30' W 070°36'0 0.0 260 / 101012.7 5.9 1.0 5.5
2017-Mar-21 16:00N 40°30' W 070°36'0 0.0 240 / 41012.9 6.6 1.1 5.6
2017-Mar-21 15:00N 40°30' W 070°36'0 0.0 270 / 41012.8 5.9 0.2 5.5
2017-Mar-21 14:00N 40°30' W 070°36'0 0.0 300 / 51012.8 6.1-0.3 5.4
2017-Mar-21 13:00N 40°30' W 070°36'0 0.0 340 / 31013.1 6.5 0.1 5.3
2017-Mar-21 12:00N 40°30' W 070°36'0 0.0 300 / 81013.2 5.8-1.1 5.3
2017-Mar-21 11:00N 40°30' W 070°36'0 0.0 290 / 101012.6 5.5-0.3 5.2
2017-Mar-21 10:00N 40°30' W 070°36'1312.8 320 / 101011.8 5.5-1.0 5.2
2017-Mar-21 09:00N 40°42' W 070°42'6 6.0 310 / 101011.9 5.4-1.2 4.5
2017-Mar-21 08:00N 40°48' W 070°42'1312.8 320 / 121011.6 5.5-2.5 4.4
2017-Mar-21 07:00N 41°00' W 070°48'8 7.5 300 / 121012.0 5.3-1.7 3.5
2017-Mar-21 06:00N 41°06' W 070°54'1212.0 310 / 131012.3 5.5-3.3 3.4
2017-Mar-21 05:00N 41°18' W 070°54'8 7.5 300 / 111012.6 4.8-1.6 3.2
2017-Mar-21 04:00N 41°24' W 070°48'0 0.0 240 / 21013.3 3.9-1.6 2.6
2017-Mar-21 03:00N 41°24' W 070°48'0 0.0 230 / 71013.5 3.6-5.3 2.6
2017-Mar-21 02:00N 41°24' W 070°48'0 0.0 100 / 11013.6 5.2-8.8 2.6
2017-Mar-21 01:00N 41°24' W 070°48'0 0.0 080 / 51013.7 5.6-8.1 2.6
2017-Mar-21 00:00N 41°24' W 070°48'0 0.0 040 / 51013.8 5.7-5.9 2.7
2017-Mar-20 23:00N 41°24' W 070°48'0 0.0 300 / 31013.8 6.0-6.2 2.7
2017-Mar-20 22:00N 41°24' W 070°48'0 0.0 030 / 101013.6 6.8-8.9 2.7
2017-Mar-20 21:00N 41°24' W 070°48'0 0.0 010 / 141014.0 7.0-9.9 2.7
2017-Mar-20 20:00N 41°24' W 070°48'0 0.0 030 / 151013.7 6.1-7.8 2.6
2017-Mar-20 19:00N 41°24' W 070°48'0 0.0 020 / 191013.4 6.0-8.9 2.6
2017-Mar-20 18:00N 41°24' W 070°48'0 0.0 020 / 221013.5 5.5-8.2 2.6
2017-Mar-20 17:00N 41°24' W 070°48'0 0.0 020 / 191014.4 5.2-7.8 2.6
2017-Mar-20 16:00N 41°24' W 070°48'0 0.0 010 / 181015.2 5.2-7.8 2.6
2017-Mar-20 15:00N 41°24' W 070°48'0 0.0 020 / 191015.5 4.4-6.9 2.6
2017-Mar-20 14:00N 41°24' W 070°48'0 0.0 010 / 211015.4 3.8-6.7 2.5
2017-Mar-20 13:00N 41°24' W 070°48'0 0.0 1015.6 2.9-7.8 2.5
2017-Mar-20 12:00N 41°24' W 070°48'0 0.0 1015.7 2.4-8.6 2.5
2017-Mar-20 11:00N 41°24' W 070°48'0 0.0 350 / 231015.3 2.1-7.8 2.5
2017-Mar-20 10:00N 41°24' W 070°48'0 0.0 350 / 221014.8 2.2-6.6 2.5
2017-Mar-20 09:00N 41°24' W 070°48'0 0.0 350 / 231014.7 2.4-6.3 2.5
2017-Mar-20 08:00N 41°24' W 070°48'0 0.0 350 / 201014.7 2.4-6.2 2.5
2017-Mar-20 07:00N 41°24' W 070°48'0 0.0 350 / 191014.8 2.6-5.3 2.5
2017-Mar-20 06:00N 41°24' W 070°48'0 0.0 350 / 171015.5 2.7-4.1 2.5
2017-Mar-20 05:00N 41°24' W 070°48'0 0.0 010 / 181016.1 3.0-4.0 2.5
2017-Mar-20 04:00N 41°24' W 070°48'0 0.0 1016.7 2.9-4.3 2.5
2017-Mar-20 03:00N 41°24' W 070°48'0 0.0 360 / 211017.4 3.0-4.1 2.5
2017-Mar-20 02:00N 41°24' W 070°48'0 0.0 010 / 201018.2 2.6-3.0 2.5
2017-Mar-20 01:00N 41°24' W 070°48'0 0.0 020 / 241018.3 2.2-3.7 2.6
2017-Mar-20 00:00N 41°24' W 070°48'0 0.0 020 / 371017.4 2.4-4.6 2.6
2017-Mar-19 23:00N 41°24' W 070°48'0 0.0 010 / 251017.3 2.4-2.2 2.6
2017-Mar-19 22:00N 41°24' W 070°48'0 0.0 020 / 301016.9 2.5-2.7 2.6
2017-Mar-19 21:00N 41°24' W 070°48'0 0.0 020 / 311017.3 2.2-1.3 2.6
2017-Mar-19 20:00N 41°24' W 070°48'0 0.0 020 / 311017.2 2.4-1.8 2.6
2017-Mar-19 19:00N 41°24' W 070°48'0 0.0 010 / 281017.7 2.3-1.1 2.6
2017-Mar-19 18:00N 41°24' W 070°48'0 0.0 020 / 291018.0 2.3-1.7 2.6
2017-Mar-19 17:00N 41°24' W 070°48'0 0.0 010 / 241018.8 2.4-2.2 2.6
2017-Mar-19 16:00N 41°24' W 070°48'0 0.0 030 / 311019.2 2.2-2.6 2.6
2017-Mar-19 15:00N 41°24' W 070°48'0 0.0 030 / 281019.7 2.4-2.7 2.5
2017-Mar-19 14:00N 41°24' W 070°48'0 0.0 050 / 271020.1 2.0-1.0 2.6
2017-Mar-19 13:00N 41°24' W 070°48'8 7.5 040 / 231020.2 2.2-1.5 2.6
2017-Mar-19 12:00N 41°18' W 070°54'8 7.5 030 / 271020.1 2.6-1.2 3.0
2017-Mar-19 11:00N 41°12' W 070°48'8 7.5 040 / 261020.3 2.7-0.7 3.7
2017-Mar-19 10:00N 41°06' W 070°42'1110.9 050 / 331019.6 2.5 0.3 3.8
2017-Mar-19 09:00N 41°00' W 070°30'1312.8 060 / 301018.6 2.6 0.3 3.4
2017-Mar-19 08:00N 40°48' W 070°24'6 6.0 060 / 261018.2 2.4-0.0 3.6
2017-Mar-19 07:00N 40°42' W 070°24'8 7.5 060 / 251018.6 2.8 0.2 4.2
2017-Mar-19 06:00N 40°36' W 070°30'8 7.5 070 / 291018.2 3.1 0.5 3.9
2017-Mar-19 05:00N 40°30' W 070°36'5 4.6 070 / 271018.1 3.5 1.0 4.3
2017-Mar-19 04:00N 40°30' W 070°30'5 4.6 080 / 271019.5 3.7 0.9 4.1
2017-Mar-19 03:00N 40°30' W 070°24'5 4.6 090 / 291019.1 4.6 1.0 4.3
2017-Mar-19 02:00N 40°30' W 070°30'0 0.0 090 / 221020.1 5.1-1.2 4.3
2017-Mar-19 01:00N 40°30' W 070°30'6 6.0 090 / 201021.4 5.2-0.2 4.3
2017-Mar-19 00:00N 40°24' W 070°30'6 6.0 100 / 171022.1 5.3-0.4 4.3
2017-Mar-18 23:00N 40°30' W 070°30'5 4.6 070 / 161021.9 5.1-0.1 4.4
2017-Mar-18 22:00N 40°30' W 070°36'0 0.0 080 / 121022.1 5.2-0.0 4.5
2017-Mar-18 21:00N 40°30' W 070°36'5 4.6 100 / 141022.3 5.2-1.0 4.7
2017-Mar-18 20:00N 40°30' W 070°42'5 4.6 080 / 141022.7 4.7 1.9 5.1
2017-Mar-18 19:00N 40°30' W 070°36'5 4.6 070 / 151022.9 4.5 0.8 4.9
2017-Mar-18 18:00N 40°30' W 070°30'0 0.0 080 / 121023.4 4.5 1.4 4.4
2017-Mar-18 17:00N 40°30' W 070°30'0 0.0 090 / 121024.0 4.4 1.7 4.3
2017-Mar-18 16:00N 40°30' W 070°30'0 0.0 070 / 101024.7 4.3 1.3 4.2
2017-Mar-18 15:00N 40°30' W 070°30'0 0.0 070 / 81025.4 4.5 1.1 4.3
2017-Mar-18 14:00N 40°30' W 070°30'0 0.0 080 / 51025.1 4.5 1.0 4.0
2017-Mar-18 13:00N 40°30' W 070°30'5 4.6 060 / 31025.1 4.3-0.4 4.0
2017-Mar-18 12:00N 40°30' W 070°36'5 4.6 140 / 41024.6 4.5-0.7 4.9
2017-Mar-18 11:00N 40°30' W 070°42'0 0.0 150 / 21024.3 4.4-1.7 5.1
2017-Mar-18 10:00N 40°30' W 070°42'0 0.0 270 / 11024.1 4.4-2.5 5.0
2017-Mar-18 09:00N 40°30' W 070°42'5 4.6 1023.7 4.7-1.2 5.0
2017-Mar-18 08:00N 40°30' W 070°36'5 4.6 310 / 61023.7 5.1-0.3 4.9
2017-Mar-18 07:00N 40°30' W 070°30'5 4.6 270 / 81023.7 5.0 0.1 4.2
2017-Mar-18 06:00N 40°30' W 070°36'0 0.0 260 / 101024.3 5.3-0.2 4.8
2017-Mar-18 05:00N 40°30' W 070°36'0 0.0 260 / 121024.3 5.3-0.8 5.0
2017-Mar-18 04:00N 40°30' W 070°36'5 4.6 280 / 121023.9 5.2-1.9 4.9
2017-Mar-18 03:00N 40°30' W 070°30'0 0.0 280 / 151023.8 5.0-2.6 4.3
2017-Mar-18 02:00N 40°30' W 070°30'5 4.6 280 / 221023.7 4.7-3.5 4.7
2017-Mar-18 01:00N 40°30' W 070°36'6 6.0 300 / 161023.4 4.4-3.6 4.8
2017-Mar-18 00:00N 40°24' W 070°36'5 4.6 290 / 201022.7 4.5-5.2 5.0
2017-Mar-17 23:00N 40°24' W 070°30'8 7.5 270 / 221022.4 4.1-5.0 4.9
2017-Mar-17 22:00N 40°30' W 070°36'0 0.0 290 / 191021.6 3.9-8.6 5.0
2017-Mar-17 21:00N 40°30' W 070°36'1110.9 270 / 211021.3 3.3-6.9 5.0
2017-Mar-17 20:00N 40°36' W 070°48'1515.1 290 / 221021.5 2.9-6.1 5.3
2017-Mar-17 19:00N 40°48' W 071°00'8 7.5 280 / 211021.4 2.6-6.4 6.0
2017-Mar-17 18:00N 40°54' W 071°06'8 7.5 280 / 241021.2 1.9-7.5 6.0
2017-Mar-17 17:00N 41°00' W 071°12'1515.0 290 / 241021.5 1.4-9.3 5.2
2017-Mar-17 16:00N 41°12' W 071°24'6 6.0 290 / 211021.7 1.3-11.9 4.7
2017-Mar-17 15:00N 41°18' W 071°24'1312.8 310 / 191021.8 0.6-13.7 3.6
2017-Mar-17 14:00N 41°30' W 071°18'0 0.0 310 / 161021.4 -0.3-14.8 2.8
2017-Mar-17 13:00N 41°30' W 071°18'2 2.1 290 / 141021.5 -1.1-10.5 2.8
2017-Mar-17 12:04N 41°32' W 071°19'229.1
2017-Mar-17 12:00N 41°30' W 071°18'2 4.0 280 / 131021.0 -1.9-9.8 2.7
2017-Mar-17 11:29N 41°32' W 071°19'9 5.8
2017-Mar-17 10:00N 41°24' W 071°24'8 7.5 280 / 131019.8 -1.7-8.9 3.5
2017-Mar-17 09:00N 41°18' W 071°18'1212.0 290 / 201019.3 0.1-8.9 4.7
2017-Mar-17 08:00N 41°06' W 071°18'1110.9 310 / 211018.5 0.6-9.0 5.1
2017-Mar-17 07:00N 41°00' W 071°06'1312.8 310 / 261018.1 0.7-8.4 6.1
2017-Mar-17 06:00N 40°48' W 071°00'8 7.5 330 / 251017.7 0.8-11.5 6.0
2017-Mar-17 05:00N 40°42' W 070°54'1110.9 320 / 271017.3 0.9-10.8 5.6
2017-Mar-17 04:00N 40°36' W 070°42'8 7.5 320 / 251016.7 1.7-8.8 5.2
2017-Mar-17 03:00N 40°30' W 070°36'8 7.5 300 / 231015.8 3.2-10.2 5.0
2017-Mar-17 02:00N 40°24' W 070°30'8 7.5 300 / 281015.3 3.3-9.9 4.4
2017-Mar-17 01:00N 40°30' W 070°36'6 6.0 290 / 271014.9 3.0-8.4 5.1
2017-Mar-17 00:00N 40°24' W 070°36'5 4.6 290 / 281014.2 2.8-7.6 4.8
2017-Mar-16 23:00N 40°24' W 070°30'8 7.5 290 / 331012.3 2.1-9.8 4.6
2017-Mar-16 22:00N 40°30' W 070°36'5 4.6 280 / 271012.6 1.6-6.8 5.0
2017-Mar-16 21:00N 40°30' W 070°30'0 0.0 280 / 291011.9 1.0-8.7 4.9
2017-Mar-16 20:00N 40°30' W 070°30'0 0.0 280 / 251011.7 0.6-8.2 4.6
2017-Mar-16 19:00N 40°30' W 070°30'5 4.6 280 / 281011.5 0.1-8.7 4.8
2017-Mar-16 18:00N 40°30' W 070°36'8 7.5 280 / 201012.0 0.2-7.8 5.1
2017-Mar-16 17:00N 40°36' W 070°42'1312.8 280 / 301011.3 -0.5-9.4 5.2
2017-Mar-16 16:00N 40°48' W 070°48'1212.0 280 / 291011.1 -0.9-9.9 5.3
2017-Mar-16 15:00N 41°00' W 070°48'8 7.5 270 / 321010.6 -1.4-8.8 5.1
2017-Mar-16 14:00N 41°06' W 070°54'1212.0 270 / 301010.3 -1.8-9.8 4.6
2017-Mar-16 13:00N 41°18' W 070°54'8 7.5 280 / 291010.4 -2.7-11.7 3.0
2017-Mar-16 12:00N 41°24' W 070°48'7 7.5 290 / 311009.2 -3.5-12.1 2.4
2017-Mar-16 11:00N 41°30' W 070°42'   260 / 201009.0 -3.6-11.7 1.7

Dump ship's entire track history